sensor_id;sensor_type;location;lat;lon;timestamp;pressure;altitude;pressure_sealevel;temperature;humidity
77723;BME280;67811;42.656;23.394;2024-03-23T00:54:54;95126.03;;;2.58;66.25
77723;BME280;67811;42.656;23.394;2024-03-23T00:58:59;95124.22;;;2.49;66.50
77723;BME280;67811;42.656;23.394;2024-03-23T01:03:05;95121.53;;;2.30;67.37
77723;BME280;67811;42.656;23.394;2024-03-23T01:07:10;95118.88;;;2.10;68.06
77723;BME280;67811;42.656;23.394;2024-03-23T01:11:15;95124.84;;;1.92;68.41
77723;BME280;67811;42.656;23.394;2024-03-23T01:15:20;95118.28;;;1.67;69.18
77723;BME280;67811;42.656;23.394;2024-03-23T01:19:26;95116.34;;;1.69;69.40
77723;BME280;67811;42.656;23.394;2024-03-23T01:23:31;95115.72;;;1.76;69.53
77723;BME280;67811;42.656;23.394;2024-03-23T01:27:36;95123.66;;;1.65;69.55
77723;BME280;67811;42.656;23.394;2024-03-23T01:31:41;95119.78;;;1.69;70.00
77723;BME280;67811;42.656;23.394;2024-03-23T01:35:47;95116.09;;;1.72;69.56
77723;BME280;67811;42.656;23.394;2024-03-23T01:39:52;95124.91;;;1.71;69.43
77723;BME280;67811;42.656;23.394;2024-03-23T01:43:57;95114.91;;;1.76;69.89
77723;BME280;67811;42.656;23.394;2024-03-23T01:48:03;95103.50;;;1.77;69.55
77723;BME280;67811;42.656;23.394;2024-03-23T01:52:08;95107.81;;;1.88;69.49
77723;BME280;67811;42.656;23.394;2024-03-23T01:56:14;95107.06;;;1.76;69.79
77723;BME280;67811;42.656;23.394;2024-03-23T02:00:19;95114.19;;;1.74;70.11
77723;BME280;67811;42.656;23.394;2024-03-23T02:04:25;95115.38;;;1.70;69.98
77723;BME280;67811;42.656;23.394;2024-03-23T02:08:30;95119.25;;;1.66;69.89
77723;BME280;67811;42.656;23.394;2024-03-23T02:12:36;95123.31;;;1.58;70.11
77723;BME280;67811;42.656;23.394;2024-03-23T02:16:43;95122.09;;;1.63;70.36
77723;BME280;67811;42.656;23.394;2024-03-23T02:20:48;95121.97;;;1.64;70.46
77723;BME280;67811;42.656;23.394;2024-03-23T02:24:53;95118.16;;;1.68;70.02
77723;BME280;67811;42.656;23.394;2024-03-23T02:28:58;95109.25;;;1.71;70.02
77723;BME280;67811;42.656;23.394;2024-03-23T02:33:04;95124.84;;;1.61;70.05
77723;BME280;67811;42.656;23.394;2024-03-23T02:37:12;95119.06;;;1.57;70.37
77723;BME280;67811;42.656;23.394;2024-03-23T02:41:17;95124.03;;;1.40;71.02
77723;BME280;67811;42.656;23.394;2024-03-23T02:45:22;95116.06;;;1.41;71.44
77723;BME280;67811;42.656;23.394;2024-03-23T02:49:28;95123.84;;;1.31;71.53
77723;BME280;67811;42.656;23.394;2024-03-23T02:53:33;95119.50;;;1.21;72.17
77723;BME280;67811;42.656;23.394;2024-03-23T02:57:39;95124.78;;;1.10;72.14
77723;BME280;67811;42.656;23.394;2024-03-23T03:01:44;95123.63;;;1.02;71.77
77723;BME280;67811;42.656;23.394;2024-03-23T03:05:55;95110.28;;;0.96;71.87
77723;BME280;67811;42.656;23.394;2024-03-23T03:10:00;95115.19;;;1.10;71.14
77723;BME280;67811;42.656;23.394;2024-03-23T03:14:06;95116.44;;;0.95;71.30
77723;BME280;67811;42.656;23.394;2024-03-23T03:18:11;95122.41;;;0.86;71.59
77723;BME280;67811;42.656;23.394;2024-03-23T03:22:16;95114.44;;;0.87;71.50
77723;BME280;67811;42.656;23.394;2024-03-23T03:26:22;95124.88;;;0.87;71.01
77723;BME280;67811;42.656;23.394;2024-03-23T03:30:27;95127.88;;;0.83;70.82
77723;BME280;67811;42.656;23.394;2024-03-23T03:34:33;95126.56;;;0.88;70.71
77723;BME280;67811;42.656;23.394;2024-03-23T03:38:38;95120.44;;;0.99;69.80
77723;BME280;67811;42.656;23.394;2024-03-23T03:42:45;95130.50;;;1.03;69.28
77723;BME280;67811;42.656;23.394;2024-03-23T03:46:50;95122.66;;;1.03;69.29
77723;BME280;67811;42.656;23.394;2024-03-23T03:50:55;95122.63;;;0.94;70.01
77723;BME280;67811;42.656;23.394;2024-03-23T03:55:02;95119.44;;;0.90;70.57
77723;BME280;67811;42.656;23.394;2024-03-23T03:59:07;95122.31;;;0.76;71.69
77723;BME280;67811;42.656;23.394;2024-03-23T04:03:13;95132.88;;;0.74;72.13
77723;BME280;67811;42.656;23.394;2024-03-23T04:07:18;95122.69;;;0.71;72.37
77723;BME280;67811;42.656;23.394;2024-03-23T04:11:23;95130.88;;;0.78;72.80
77723;BME280;67811;42.656;23.394;2024-03-23T04:15:28;95124.31;;;0.84;72.54
77723;BME280;67811;42.656;23.394;2024-03-23T04:19:34;95130.28;;;0.74;72.54
77723;BME280;67811;42.656;23.394;2024-03-23T04:23:39;95133.00;;;0.73;73.27
77723;BME280;67811;42.656;23.394;2024-03-23T04:27:44;95133.16;;;0.60;73.73
77723;BME280;67811;42.656;23.394;2024-03-23T04:31:50;95127.47;;;0.66;73.45
77723;BME280;67811;42.656;23.394;2024-03-23T04:35:55;95136.31;;;0.75;73.18
77723;BME280;67811;42.656;23.394;2024-03-23T04:40:01;95138.50;;;1.44;71.12
77723;BME280;67811;42.656;23.394;2024-03-23T04:44:06;95134.66;;;1.99;70.04
77723;BME280;67811;42.656;23.394;2024-03-23T04:48:12;95138.63;;;2.34;69.57
77723;BME280;67811;42.656;23.394;2024-03-23T04:52:17;95141.63;;;2.70;67.80
77723;BME280;67811;42.656;23.394;2024-03-23T04:56:22;95143.00;;;2.83;66.58
77723;BME280;67811;42.656;23.394;2024-03-23T05:00:28;95158.03;;;3.01;65.19
77723;BME280;67811;42.656;23.394;2024-03-23T05:04:33;95148.63;;;3.66;64.17
77723;BME280;67811;42.656;23.394;2024-03-23T05:08:38;95135.44;;;4.32;62.26
77723;BME280;67811;42.656;23.394;2024-03-23T05:12:44;95137.38;;;4.58;61.00
77723;BME280;67811;42.656;23.394;2024-03-23T05:16:49;95142.88;;;4.82;61.01
77723;BME280;67811;42.656;23.394;2024-03-23T05:20:58;95131.66;;;5.25;59.61
77723;BME280;67811;42.656;23.394;2024-03-23T05:25:04;95138.31;;;5.38;58.41
77723;BME280;67811;42.656;23.394;2024-03-23T05:29:09;95129.59;;;5.55;57.28
77723;BME280;67811;42.656;23.394;2024-03-23T05:33:14;95125.88;;;5.22;57.81
77723;BME280;67811;42.656;23.394;2024-03-23T05:37:20;95123.34;;;5.12;58.01
77723;BME280;67811;42.656;23.394;2024-03-23T05:41:25;95131.97;;;5.22;57.12
77723;BME280;67811;42.656;23.394;2024-03-23T05:45:30;95131.63;;;5.43;57.25
77723;BME280;67811;42.656;23.394;2024-03-23T05:49:35;95123.94;;;6.20;55.73
77723;BME280;67811;42.656;23.394;2024-03-23T05:53:41;95124.63;;;7.31;52.71
77723;BME280;67811;42.656;23.394;2024-03-23T05:57:46;95116.53;;;7.73;51.36
77723;BME280;67811;42.656;23.394;2024-03-23T06:01:51;95110.09;;;8.87;48.09
77723;BME280;67811;42.656;23.394;2024-03-23T06:05:56;95115.25;;;9.95;45.16
77723;BME280;67811;42.656;23.394;2024-03-23T06:10:02;95116.59;;;10.73;43.05
77723;BME280;67811;42.656;23.394;2024-03-23T06:14:07;95114.94;;;10.57;43.32
77723;BME280;67811;42.656;23.394;2024-03-23T06:18:12;95111.28;;;10.58;43.00
77723;BME280;67811;42.656;23.394;2024-03-23T06:22:18;95108.19;;;10.25;43.38
77723;BME280;67811;42.656;23.394;2024-03-23T06:26:23;95106.69;;;10.81;42.56
77723;BME280;67811;42.656;23.394;2024-03-23T06:30:28;95107.84;;;11.30;41.97
77723;BME280;67811;42.656;23.394;2024-03-23T06:34:34;95111.06;;;10.15;43.04
77723;BME280;67811;42.656;23.394;2024-03-23T06:38:39;95106.72;;;11.39;41.45
77723;BME280;67811;42.656;23.394;2024-03-23T06:42:44;95100.66;;;11.45;41.60
77723;BME280;67811;42.656;23.394;2024-03-23T06:46:50;95106.34;;;11.85;40.87
77723;BME280;67811;42.656;23.394;2024-03-23T06:50:56;95109.63;;;11.66;41.42
77723;BME280;67811;42.656;23.394;2024-03-23T06:55:01;95110.66;;;11.43;40.97
77723;BME280;67811;42.656;23.394;2024-03-23T06:59:07;95104.81;;;11.54;41.08
77723;BME280;67811;42.656;23.394;2024-03-23T07:03:12;95092.75;;;12.29;39.32
77723;BME280;67811;42.656;23.394;2024-03-23T07:07:17;95089.72;;;13.22;38.27
77723;BME280;67811;42.656;23.394;2024-03-23T07:11:23;95086.81;;;13.10;38.27
77723;BME280;67811;42.656;23.394;2024-03-23T07:15:29;95078.09;;;14.22;36.28
77723;BME280;67811;42.656;23.394;2024-03-23T07:19:34;95072.44;;;14.83;34.26
77723;BME280;67811;42.656;23.394;2024-03-23T07:23:42;95077.41;;;15.56;33.48
77723;BME280;67811;42.656;23.394;2024-03-23T07:27:47;95076.25;;;15.45;33.12
77723;BME280;67811;42.656;23.394;2024-03-23T07:31:53;95061.25;;;15.44;33.47
77723;BME280;67811;42.656;23.394;2024-03-23T07:35:59;95062.22;;;16.31;32.19
77723;BME280;67811;42.656;23.394;2024-03-23T07:40:05;95058.53;;;16.51;31.30
77723;BME280;67811;42.656;23.394;2024-03-23T07:44:10;95060.97;;;17.26;30.29
77723;BME280;67811;42.656;23.394;2024-03-23T07:48:16;95057.38;;;17.32;29.44
77723;BME280;67811;42.656;23.394;2024-03-23T07:52:21;95043.56;;;17.17;30.13
77723;BME280;67811;42.656;23.394;2024-03-23T07:56:26;95057.00;;;17.28;30.25
77723;BME280;67811;42.656;23.394;2024-03-23T08:00:33;95043.19;;;17.85;29.23
77723;BME280;67811;42.656;23.394;2024-03-23T08:04:38;95053.00;;;17.49;29.66
77723;BME280;67811;42.656;23.394;2024-03-23T08:08:45;95039.63;;;18.14;28.74
77723;BME280;67811;42.656;23.394;2024-03-23T08:12:50;95047.56;;;18.80;28.70
77723;BME280;67811;42.656;23.394;2024-03-23T08:16:55;95045.19;;;19.24;27.58
77723;BME280;67811;42.656;23.394;2024-03-23T08:21:05;95049.06;;;17.94;28.79
77723;BME280;67811;42.656;23.394;2024-03-23T08:25:11;95041.09;;;17.45;29.06
77723;BME280;67811;42.656;23.394;2024-03-23T08:29:16;95045.78;;;17.50;30.04
77723;BME280;67811;42.656;23.394;2024-03-23T08:33:22;95030.78;;;18.14;29.12
77723;BME280;67811;42.656;23.394;2024-03-23T08:37:27;95031.47;;;18.21;27.83
77723;BME280;67811;42.656;23.394;2024-03-23T08:41:32;95034.34;;;17.12;29.82
77723;BME280;67811;42.656;23.394;2024-03-23T08:45:38;95012.44;;;18.34;28.75
77723;BME280;67811;42.656;23.394;2024-03-23T08:49:44;95014.31;;;18.10;28.13
77723;BME280;67811;42.656;23.394;2024-03-23T08:53:49;95007.06;;;18.34;28.58
77723;BME280;67811;42.656;23.394;2024-03-23T08:57:55;94999.75;;;19.22;27.25
77723;BME280;67811;42.656;23.394;2024-03-23T09:02:00;95008.31;;;18.79;26.65
77723;BME280;67811;42.656;23.394;2024-03-23T09:06:10;94993.69;;;19.43;26.81
77723;BME280;67811;42.656;23.394;2024-03-23T09:10:16;94989.75;;;18.77;26.87
77723;BME280;67811;42.656;23.394;2024-03-23T09:14:22;94989.59;;;17.31;28.94
77723;BME280;67811;42.656;23.394;2024-03-23T09:18:27;94970.19;;;17.06;29.36
77723;BME280;67811;42.656;23.394;2024-03-23T09:22:33;94964.78;;;18.77;28.21
77723;BME280;67811;42.656;23.394;2024-03-23T09:26:38;94962.25;;;19.44;26.63
77723;BME280;67811;42.656;23.394;2024-03-23T09:30:43;94956.19;;;19.99;26.74
77723;BME280;67811;42.656;23.394;2024-03-23T09:34:48;94944.63;;;20.81;25.40
77723;BME280;67811;42.656;23.394;2024-03-23T09:38:54;94936.25;;;20.99;24.70
77723;BME280;67811;42.656;23.394;2024-03-23T09:42:59;94935.50;;;20.38;24.65
77723;BME280;67811;42.656;23.394;2024-03-23T09:47:04;94924.03;;;21.19;23.96
77723;BME280;67811;42.656;23.394;2024-03-23T09:51:10;94913.31;;;22.25;23.56
77723;BME280;67811;42.656;23.394;2024-03-23T09:55:15;94907.47;;;22.01;22.97
77723;BME280;67811;42.656;23.394;2024-03-23T09:59:21;94907.97;;;22.41;23.16
77723;BME280;67811;42.656;23.394;2024-03-23T10:03:26;94899.09;;;21.98;23.65
77723;BME280;67811;42.656;23.394;2024-03-23T10:07:31;94891.56;;;22.47;21.67
77723;BME280;67811;42.656;23.394;2024-03-23T10:11:36;94890.34;;;20.89;23.41
77723;BME280;67811;42.656;23.394;2024-03-23T10:15:42;94884.59;;;21.35;23.91
77723;BME280;67811;42.656;23.394;2024-03-23T10:19:48;94873.59;;;21.41;23.30
77723;BME280;67811;42.656;23.394;2024-03-23T10:23:54;94859.97;;;21.58;23.09
77723;BME280;67811;42.656;23.394;2024-03-23T10:28:00;94864.28;;;21.27;23.27
77723;BME280;67811;42.656;23.394;2024-03-23T10:32:12;94855.97;;;21.61;23.54
77723;BME280;67811;42.656;23.394;2024-03-23T10:36:17;94852.41;;;22.02;22.77
77723;BME280;67811;42.656;23.394;2024-03-23T10:40:24;94841.41;;;22.09;23.33
77723;BME280;67811;42.656;23.394;2024-03-23T10:44:30;94830.13;;;22.17;22.64
77723;BME280;67811;42.656;23.394;2024-03-23T10:48:36;94827.28;;;21.97;22.50
77723;BME280;67811;42.656;23.394;2024-03-23T10:52:46;94818.81;;;21.73;23.75
77723;BME280;67811;42.656;23.394;2024-03-23T10:57:03;94807.81;;;22.37;22.48
77723;BME280;67811;42.656;23.394;2024-03-23T11:01:13;94794.91;;;22.59;21.79
77723;BME280;67811;42.656;23.394;2024-03-23T11:05:29;94785.28;;;23.30;21.48
77723;BME280;67811;42.656;23.394;2024-03-23T11:13:40;94763.91;;;23.28;20.61
77723;BME280;67811;42.656;23.394;2024-03-23T11:18:05;94759.81;;;21.87;21.33
77723;BME280;67811;42.656;23.394;2024-03-23T11:22:11;94753.97;;;22.05;21.35
77723;BME280;67811;42.656;23.394;2024-03-23T11:26:16;94741.06;;;22.17;20.90
77723;BME280;67811;42.656;23.394;2024-03-23T11:34:28;94724.59;;;22.14;21.39
77723;BME280;67811;42.656;23.394;2024-03-23T11:38:36;94722.81;;;22.65;21.30
77723;BME280;67811;42.656;23.394;2024-03-23T11:42:42;94717.16;;;22.77;20.42
77723;BME280;67811;42.656;23.394;2024-03-23T11:46:47;94700.09;;;22.25;21.32
77723;BME280;67811;42.656;23.394;2024-03-23T11:50:57;94702.22;;;22.18;20.55
77723;BME280;67811;42.656;23.394;2024-03-23T11:55:03;94691.38;;;21.40;22.03
77723;BME280;67811;42.656;23.394;2024-03-23T11:59:09;94677.38;;;20.64;21.66
77723;BME280;67811;42.656;23.394;2024-03-23T12:03:16;94672.25;;;20.99;22.42
77723;BME280;67811;42.656;23.394;2024-03-23T12:07:21;94676.56;;;21.48;21.73
77723;BME280;67811;42.656;23.394;2024-03-23T12:11:26;94654.72;;;20.00;23.11
77723;BME280;67811;42.656;23.394;2024-03-23T12:15:32;94650.03;;;19.64;24.08
77723;BME280;67811;42.656;23.394;2024-03-23T12:19:38;94643.94;;;20.97;23.23
77723;BME280;67811;42.656;23.394;2024-03-23T12:23:43;94643.16;;;21.49;22.50
77723;BME280;67811;42.656;23.394;2024-03-23T12:27:49;94637.88;;;21.79;21.53
77723;BME280;67811;42.656;23.394;2024-03-23T12:31:54;94637.13;;;21.99;22.03
77723;BME280;67811;42.656;23.394;2024-03-23T12:35:59;94627.38;;;21.88;21.13
77723;BME280;67811;42.656;23.394;2024-03-23T12:40:05;94618.00;;;22.47;21.33
77723;BME280;67811;42.656;23.394;2024-03-23T12:44:12;94619.63;;;22.88;20.62
77723;BME280;67811;42.656;23.394;2024-03-23T12:48:17;94603.13;;;22.80;20.19
77723;BME280;67811;42.656;23.394;2024-03-23T12:52:22;94596.41;;;22.98;20.39
77723;BME280;67811;42.656;23.394;2024-03-23T12:56:27;94585.78;;;23.11;19.87
77723;BME280;67811;42.656;23.394;2024-03-23T13:00:33;94578.44;;;23.32;19.24
77723;BME280;67811;42.656;23.394;2024-03-23T13:04:38;94572.47;;;23.35;18.85
77723;BME280;67811;42.656;23.394;2024-03-23T13:08:44;94566.09;;;23.01;19.67
77723;BME280;67811;42.656;23.394;2024-03-23T13:12:49;94564.81;;;22.52;19.03
77723;BME280;67811;42.656;23.394;2024-03-23T13:16:55;94559.16;;;22.64;18.93
77723;BME280;67811;42.656;23.394;2024-03-23T13:21:00;94545.66;;;22.54;18.48
77723;BME280;67811;42.656;23.394;2024-03-23T13:25:06;94540.25;;;22.69;18.14
77723;BME280;67811;42.656;23.394;2024-03-23T13:29:11;94535.06;;;22.93;18.12
77723;BME280;67811;42.656;23.394;2024-03-23T13:33:16;94533.16;;;22.99;17.72
77723;BME280;67811;42.656;23.394;2024-03-23T13:37:22;94535.44;;;22.10;17.60
77723;BME280;67811;42.656;23.394;2024-03-23T13:41:27;94533.50;;;20.97;18.34
77723;BME280;67811;42.656;23.394;2024-03-23T13:45:32;94520.81;;;21.65;17.80
77723;BME280;67811;42.656;23.394;2024-03-23T13:49:37;94514.19;;;21.15;17.96
77723;BME280;67811;42.656;23.394;2024-03-23T13:53:43;94507.59;;;21.79;18.48
77723;BME280;67811;42.656;23.394;2024-03-23T13:57:48;94503.22;;;21.37;20.13
77723;BME280;67811;42.656;23.394;2024-03-23T14:01:53;94508.06;;;21.35;20.37
77723;BME280;67811;42.656;23.394;2024-03-23T14:05:59;94503.00;;;21.74;20.01
77723;BME280;67811;42.656;23.394;2024-03-23T14:10:04;94501.41;;;22.29;19.88
77723;BME280;67811;42.656;23.394;2024-03-23T14:14:10;94500.38;;;22.10;18.89
77723;BME280;67811;42.656;23.394;2024-03-23T14:18:15;94496.28;;;22.02;18.65
77723;BME280;67811;42.656;23.394;2024-03-23T14:22:20;94489.81;;;22.14;17.16
77723;BME280;67811;42.656;23.394;2024-03-23T14:26:26;94491.41;;;20.81;18.18
77723;BME280;67811;42.656;23.394;2024-03-23T14:30:32;94480.50;;;19.48;19.02
77723;BME280;67811;42.656;23.394;2024-03-23T14:34:37;94473.03;;;18.97;19.59
77723;BME280;67811;42.656;23.394;2024-03-23T14:38:42;94475.09;;;19.16;19.77
77723;BME280;67811;42.656;23.394;2024-03-23T14:42:51;94474.03;;;19.44;19.46
77723;BME280;67811;42.656;23.394;2024-03-23T14:46:57;94462.78;;;19.47;18.18
77723;BME280;67811;42.656;23.394;2024-03-23T14:51:02;94470.09;;;19.25;18.03
77723;BME280;67811;42.656;23.394;2024-03-23T14:55:08;94465.66;;;18.87;18.75
77723;BME280;67811;42.656;23.394;2024-03-23T14:59:13;94467.41;;;18.76;18.98
77723;BME280;67811;42.656;23.394;2024-03-23T15:03:19;94453.56;;;18.24;19.21
77723;BME280;67811;42.656;23.394;2024-03-23T15:07:24;94445.44;;;18.79;18.74
77723;BME280;67811;42.656;23.394;2024-03-23T15:11:29;94450.84;;;18.02;19.40
77723;BME280;67811;42.656;23.394;2024-03-23T15:15:41;94446.06;;;18.04;19.36
77723;BME280;67811;42.656;23.394;2024-03-23T15:19:46;94437.78;;;17.88;19.21
77723;BME280;67811;42.656;23.394;2024-03-23T15:23:52;94438.63;;;18.11;19.25
77723;BME280;67811;42.656;23.394;2024-03-23T15:27:58;94433.91;;;18.18;19.11
77723;BME280;67811;42.656;23.394;2024-03-23T15:32:03;94436.59;;;18.40;19.20
77723;BME280;67811;42.656;23.394;2024-03-23T15:36:09;94434.69;;;18.35;19.29
77723;BME280;67811;42.656;23.394;2024-03-23T15:40:14;94441.38;;;18.16;19.41
77723;BME280;67811;42.656;23.394;2024-03-23T15:44:19;94431.97;;;17.75;19.70
77723;BME280;67811;42.656;23.394;2024-03-23T15:48:25;94432.16;;;17.56;20.36
77723;BME280;67811;42.656;23.394;2024-03-23T15:52:30;94431.34;;;17.56;20.02
77723;BME280;67811;42.656;23.394;2024-03-23T15:56:35;94433.38;;;17.32;20.36
77723;BME280;67811;42.656;23.394;2024-03-23T16:00:41;94428.09;;;17.03;21.37
77723;BME280;67811;42.656;23.394;2024-03-23T16:04:46;94433.38;;;16.86;22.08
77723;BME280;67811;42.656;23.394;2024-03-23T16:08:51;94434.03;;;16.65;22.64
77723;BME280;67811;42.656;23.394;2024-03-23T16:12:57;94430.94;;;16.45;23.15
77723;BME280;67811;42.656;23.394;2024-03-23T16:17:02;94438.44;;;16.19;24.36
77723;BME280;67811;42.656;23.394;2024-03-23T16:21:08;94433.81;;;16.03;25.02
77723;BME280;67811;42.656;23.394;2024-03-23T16:25:13;94443.13;;;15.89;25.19
77723;BME280;67811;42.656;23.394;2024-03-23T16:29:18;94429.31;;;15.80;25.49
77723;BME280;67811;42.656;23.394;2024-03-23T16:33:25;94428.78;;;15.60;25.81
77723;BME280;67811;42.656;23.394;2024-03-23T16:37:30;94427.66;;;15.55;26.40
77723;BME280;67811;42.656;23.394;2024-03-23T16:41:35;94430.28;;;15.32;26.96
77723;BME280;67811;42.656;23.394;2024-03-23T16:45:41;94434.19;;;15.06;27.22
77723;BME280;67811;42.656;23.394;2024-03-23T16:49:46;94428.94;;;14.99;27.71
77723;BME280;67811;42.656;23.394;2024-03-23T16:53:51;94426.38;;;14.93;28.14
77723;BME280;67811;42.656;23.394;2024-03-23T16:57:56;94426.50;;;14.98;28.07
77723;BME280;67811;42.656;23.394;2024-03-23T17:02:02;94422.78;;;14.99;28.32
77723;BME280;67811;42.656;23.394;2024-03-23T17:06:07;94417.75;;;14.79;28.73
77723;BME280;67811;42.656;23.394;2024-03-23T17:10:13;94423.34;;;14.59;29.00
77723;BME280;67811;42.656;23.394;2024-03-23T17:14:18;94425.16;;;14.47;29.57
77723;BME280;67811;42.656;23.394;2024-03-23T17:18:23;94431.78;;;14.38;29.84
77723;BME280;67811;42.656;23.394;2024-03-23T17:22:29;94422.84;;;14.32;29.88
77723;BME280;67811;42.656;23.394;2024-03-23T17:26:35;94428.41;;;13.94;30.35
77723;BME280;67811;42.656;23.394;2024-03-23T17:30:41;94426.94;;;13.80;30.75
77723;BME280;67811;42.656;23.394;2024-03-23T17:34:46;94418.72;;;13.81;31.33
77723;BME280;67811;42.656;23.394;2024-03-23T17:38:54;94416.41;;;13.66;31.35
77723;BME280;67811;42.656;23.394;2024-03-23T17:43:00;94413.38;;;13.38;32.49
77723;BME280;67811;42.656;23.394;2024-03-23T17:47:05;94417.25;;;13.42;32.65
77723;BME280;67811;42.656;23.394;2024-03-23T17:51:10;94415.91;;;13.51;32.63
77723;BME280;67811;42.656;23.394;2024-03-23T17:55:16;94418.44;;;13.46;33.26
77723;BME280;67811;42.656;23.394;2024-03-23T17:59:21;94421.63;;;13.55;32.96
77723;BME280;67811;42.656;23.394;2024-03-23T18:03:27;94428.94;;;13.41;33.44
77723;BME280;67811;42.656;23.394;2024-03-23T18:07:32;94429.03;;;13.28;33.26
77723;BME280;67811;42.656;23.394;2024-03-23T18:11:38;94409.88;;;13.12;33.68
77723;BME280;67811;42.656;23.394;2024-03-23T18:15:43;94414.22;;;13.07;34.06
77723;BME280;67811;42.656;23.394;2024-03-23T18:19:48;94419.94;;;13.10;35.30
77723;BME280;67811;42.656;23.394;2024-03-23T18:23:53;94427.50;;;13.07;34.93
77723;BME280;67811;42.656;23.394;2024-03-23T18:27:59;94424.91;;;13.00;35.27
77723;BME280;67811;42.656;23.394;2024-03-23T18:32:04;94422.78;;;12.84;35.59
77723;BME280;67811;42.656;23.394;2024-03-23T18:36:10;94437.69;;;12.53;36.45
77723;BME280;67811;42.656;23.394;2024-03-23T18:40:15;94432.16;;;12.55;37.07
77723;BME280;67811;42.656;23.394;2024-03-23T18:44:20;94436.69;;;12.41;36.84
77723;BME280;67811;42.656;23.394;2024-03-23T18:48:26;94444.09;;;12.39;37.40
77723;BME280;67811;42.656;23.394;2024-03-23T18:52:31;94415.94;;;12.25;37.68
77723;BME280;67811;42.656;23.394;2024-03-23T18:56:36;94439.38;;;11.70;38.77
77723;BME280;67811;42.656;23.394;2024-03-23T19:00:42;94433.63;;;11.79;39.24
77723;BME280;67811;42.656;23.394;2024-03-23T19:04:47;94427.50;;;11.79;39.13
77723;BME280;67811;42.656;23.394;2024-03-23T19:08:52;94435.69;;;11.64;39.89
77723;BME280;67811;42.656;23.394;2024-03-23T19:12:57;94441.66;;;11.59;39.76
77723;BME280;67811;42.656;23.394;2024-03-23T19:17:03;94441.66;;;11.59;39.84
77723;BME280;67811;42.656;23.394;2024-03-23T19:21:08;94447.00;;;11.26;40.98
77723;BME280;67811;42.656;23.394;2024-03-23T19:25:13;94443.91;;;11.49;40.09
77723;BME280;67811;42.656;23.394;2024-03-23T19:29:18;94449.19;;;11.43;40.20
77723;BME280;67811;42.656;23.394;2024-03-23T19:33:24;94443.69;;;11.31;40.42
77723;BME280;67811;42.656;23.394;2024-03-23T19:37:30;94441.69;;;11.33;40.71
77723;BME280;67811;42.656;23.394;2024-03-23T19:41:35;94451.88;;;11.16;41.24
77723;BME280;67811;42.656;23.394;2024-03-23T19:45:40;94439.59;;;10.75;41.80
77723;BME280;67811;42.656;23.394;2024-03-23T19:49:45;94443.22;;;10.54;42.51
77723;BME280;67811;42.656;23.394;2024-03-23T19:53:51;94441.41;;;10.55;41.88
77723;BME280;67811;42.656;23.394;2024-03-23T19:57:56;94431.03;;;10.73;42.34
77723;BME280;67811;42.656;23.394;2024-03-23T20:02:01;94445.09;;;10.80;41.92
77723;BME280;67811;42.656;23.394;2024-03-23T20:06:07;94444.88;;;10.82;41.38
77723;BME280;67811;42.656;23.394;2024-03-23T20:10:12;94445.69;;;10.69;42.43
77723;BME280;67811;42.656;23.394;2024-03-23T20:14:17;94449.19;;;10.83;42.03
77723;BME280;67811;42.656;23.394;2024-03-23T20:18:23;94442.28;;;10.89;42.16
77723;BME280;67811;42.656;23.394;2024-03-23T20:22:28;94442.97;;;10.43;42.93
77723;BME280;67811;42.656;23.394;2024-03-23T20:26:33;94450.16;;;10.08;43.36
77723;BME280;67811;42.656;23.394;2024-03-23T20:30:39;94440.19;;;10.10;43.88
77723;BME280;67811;42.656;23.394;2024-03-23T20:34:44;94451.09;;;10.28;43.58
77723;BME280;67811;42.656;23.394;2024-03-23T20:38:49;94448.84;;;10.32;43.53
77723;BME280;67811;42.656;23.394;2024-03-23T20:43:06;94449.56;;;10.12;43.62
77723;BME280;67811;42.656;23.394;2024-03-23T20:47:12;94461.50;;;9.95;43.70
77723;BME280;67811;42.656;23.394;2024-03-23T20:51:17;94455.50;;;9.73;44.40
77723;BME280;67811;42.656;23.394;2024-03-23T20:55:23;94452.47;;;9.48;44.97
77723;BME280;67811;42.656;23.394;2024-03-23T20:59:28;94452.19;;;9.36;44.92
77723;BME280;67811;42.656;23.394;2024-03-23T21:03:33;94453.94;;;9.50;44.91
77723;BME280;67811;42.656;23.394;2024-03-23T21:07:39;94456.94;;;9.47;45.11
77723;BME280;67811;42.656;23.394;2024-03-23T21:11:44;94457.50;;;9.71;44.74
77723;BME280;67811;42.656;23.394;2024-03-23T21:15:50;94476.06;;;9.49;45.15
77723;BME280;67811;42.656;23.394;2024-03-23T21:19:56;94484.81;;;9.22;45.56
77723;BME280;67811;42.656;23.394;2024-03-23T21:24:01;94475.75;;;9.59;45.15
77723;BME280;67811;42.656;23.394;2024-03-23T21:28:07;94470.66;;;9.58;45.07
77723;BME280;67811;42.656;23.394;2024-03-23T21:32:12;94478.44;;;9.38;45.26
77723;BME280;67811;42.656;23.394;2024-03-23T21:36:17;94463.59;;;9.37;44.65
77723;BME280;67811;42.656;23.394;2024-03-23T21:40:22;94467.25;;;9.36;44.73
77723;BME280;67811;42.656;23.394;2024-03-23T21:44:28;94479.44;;;9.37;44.58
77723;BME280;67811;42.656;23.394;2024-03-23T21:48:33;94478.03;;;9.34;44.58
77723;BME280;67811;42.656;23.394;2024-03-23T21:52:38;94477.25;;;9.40;44.12
77723;BME280;67811;42.656;23.394;2024-03-23T21:56:44;94478.47;;;9.44;44.04
77723;BME280;67811;42.656;23.394;2024-03-23T22:00:49;94477.00;;;9.63;44.00
77723;BME280;67811;42.656;23.394;2024-03-23T22:04:54;94471.44;;;9.52;43.66
77723;BME280;67811;42.656;23.394;2024-03-23T22:09:00;94468.28;;;9.41;43.17
77723;BME280;67811;42.656;23.394;2024-03-23T22:13:06;94472.38;;;9.44;43.92
77723;BME280;67811;42.656;23.394;2024-03-23T22:17:11;94477.69;;;9.22;43.92
77723;BME280;67811;42.656;23.394;2024-03-23T22:21:17;94475.09;;;9.01;45.49
77723;BME280;67811;42.656;23.394;2024-03-23T22:25:25;94477.59;;;9.09;45.96
77723;BME280;67811;42.656;23.394;2024-03-23T22:29:30;94472.09;;;9.32;44.77